WetterOnline ( https://www.wetteronline.at )

Wetter aktuell Bamberg

Aktuelles Wetter: Bamberg (243m)

6-stündlich | Neueste Meldungen
Ortszeit Temperatur Wetter
Sa, 22.02. 7:00 1.6° C leicht bewölkt
Sa, 22.02. 1:00 5.2° C bedeckt
Fr, 21.02. 19:00 5.8° C bedeckt
Fr, 21.02. 13:00 7.4° C bewölkt
Fr, 21.02. 7:00 3.7° C bedeckt
Fr, 21.02. 1:00 7.0° C leichter Regen
Do, 20.02. 19:00 8.1° C bedeckt
Do, 20.02. 13:00 5.8° C bewölkt
Ortszeit Temperatur Wetter
Sa, 22.02. 7:30 1.1° C leicht bewölkt
Sa, 22.02. 7:20 1.1° C leicht bewölkt
Sa, 22.02. 7:10 1.2° C wolkig
Sa, 22.02. 7:00 1.6° C leicht bewölkt
Sa, 22.02. 6:50 1.6° C leicht bewölkt
Sa, 22.02. 6:40 1.3° C wolkenlos
Sa, 22.02. 6:30 1.8° C wolkenlos
Sa, 22.02. 6:00 2.2° C wolkenlos
Sa, 22.02. 5:30 1.9° C leicht bewölkt
Sa, 22.02. 5:00 2.7° C leicht bewölkt
Sa, 22.02. 4:30 2.5° C wolkenlos
Ortszeit Relative Feuchte Sichtweite
Sa, 22.02. 7:00 77% 50 km
Sa, 22.02. 1:00 65% 45 km
Fr, 21.02. 19:00 60% 50 km
Fr, 21.02. 13:00 54% >70 km
Fr, 21.02. 7:00 70% 45 km
Fr, 21.02. 1:00 78% 14 km
Do, 20.02. 19:00 62% 55 km
Do, 20.02. 13:00 86% 50 km
Ortszeit Relative Feuchte Sichtweite
Sa, 22.02. 7:30 79% 50 km
Sa, 22.02. 7:20 79% -
Sa, 22.02. 7:10 77% -
Sa, 22.02. 7:00 77% 50 km
Sa, 22.02. 6:50 77% -
Sa, 22.02. 6:40 78% -
Sa, 22.02. 6:30 76% 50 km
Sa, 22.02. 6:00 75% 45 km
Sa, 22.02. 5:30 76% 45 km
Sa, 22.02. 5:00 73% 55 km
Sa, 22.02. 4:30 74% 45 km
Ortszeit Niederschlagsmenge Niederschlagsart
Sa, 22.02. 7:00 0.0 l/m2 in 12 Std. -
Sa, 22.02. 1:00 0.0 l/m2 in 6 Std. -
Fr, 21.02. 19:00 0.1 l/m2 in 12 Std. -
Fr, 21.02. 13:00 0.1 l/m2 in 6 Std. Regen
Fr, 21.02. 7:00 2 l/m2 in 12 Std. Regen
Fr, 21.02. 1:00 0.8 l/m2 in 6 Std. Regen
Do, 20.02. 19:00 0.1 l/m2 in 12 Std. Regen
Do, 20.02. 13:00 0.1 l/m2 in 6 Std. Regen
Ortszeit Niederschlagsmenge Niederschlagsart
Sa, 22.02. 7:30 0.0 l/m2 in 1 Std. -
Sa, 22.02. 7:20 keine Meldung -
Sa, 22.02. 7:10 keine Meldung -
Sa, 22.02. 7:00 0.0 l/m2 in 1 Std. -
Sa, 22.02. 6:50 keine Meldung -
Sa, 22.02. 6:40 keine Meldung -
Sa, 22.02. 6:30 0.0 l/m2 in 1 Std. -
Sa, 22.02. 6:00 0.0 l/m2 in 1 Std. -
Sa, 22.02. 5:30 0.0 l/m2 in 1 Std. -
Sa, 22.02. 5:00 0.0 l/m2 in 1 Std. -
Sa, 22.02. 4:30 0.0 l/m2 in 1 Std. -
Ortszeit Stärke Spitze Richtung
km/h Bft. km/h Grad Sektor
Sa, 22.02. 7:00 9 2 22 150° SO
Sa, 22.02. 1:00 7 2 18 180° S
Fr, 21.02. 19:00 7 2 36 200° S
Fr, 21.02. 13:00 19 3 37 250° W
Fr, 21.02. 7:00 13 3 57 270° W
Fr, 21.02. 1:00 22 4 40 230° SW
Do, 20.02. 19:00 11 2 25 190° S
Do, 20.02. 13:00 13 3 20 170° S
Ortszeit Stärke Spitze Richtung
km/h Bft. km/h Grad Sektor
Sa, 22.02. 7:30 11 2 17 150° SO
Sa, 22.02. 7:20 11 2 - 150° SO
Sa, 22.02. 7:10 11 2 - 150° SO
Sa, 22.02. 7:00 9 2 22 150° SO
Sa, 22.02. 6:50 9 2 - 150° SO
Sa, 22.02. 6:40 7 2 - 150° SO
Sa, 22.02. 6:30 11 2 22 150° SO
Sa, 22.02. 6:00 14 3 22 140° SO
Sa, 22.02. 5:30 11 2 14 130° SO
Sa, 22.02. 5:00 11 2 18 140° SO
Sa, 22.02. 4:30 11 2 14 150° SO
Ortszeit Untergrenze Bedeckung Gattung
total tief tief mittel hoch
Sa, 22.02. 7:00 9000 m 3/8 0/8 - - -
Sa, 22.02. 1:00 3300 m 8/8 8/8 - - -
Fr, 21.02. 19:00 3000 m 8/8 8/8 - - -
Fr, 21.02. 13:00 1110 m 7/8 7/8 - - -
Fr, 21.02. 7:00 1140 m 8/8 8/8 - - -
Fr, 21.02. 1:00 780 m 7/8 7/8 - - -
Do, 20.02. 19:00 1410 m 8/8 8/8 - - -
Do, 20.02. 13:00 480 m 8/8 7/8 - - -
Ortszeit Bedeckungsgrad in Achtel und Wolkenuntergrenze
Sa, 22.02. 7:30 6(9000m)
Sa, 22.02. 7:20 6(9000m)
Sa, 22.02. 7:10 7(9000m)
Sa, 22.02. 7:00 3(9000m)
Sa, 22.02. 6:50 3(9000m)
Sa, 22.02. 6:40 keine Wolken
Sa, 22.02. 6:30 keine Wolken
Sa, 22.02. 6:00 keine Wolken
Sa, 22.02. 5:30 3(10500m)
Sa, 22.02. 5:00 5(10500m)
Sa, 22.02. 4:30 keine Wolken
Ortszeit Luftdruck NN (hPa) Tendenz (hPa in 3 Std.)
Sa, 22.02. 7:00 1028 - 1,0
Sa, 22.02. 1:00 1029 - 0,9
Fr, 21.02. 19:00 1030 + 1,2
Fr, 21.02. 13:00 1029 + 0,8
Fr, 21.02. 7:00 1026 + 5,0
Fr, 21.02. 1:00 1015 - 1,1
Do, 20.02. 19:00 1018 - 1,3
Do, 20.02. 13:00 1022 - 1,3
Ortszeit Luftdruck NN (hPa) Tendenz (hPa in 3 Std.)
Sa, 22.02. 7:30 1028 - 1,0
Sa, 22.02. 7:20 1028 keine Meldung
Sa, 22.02. 7:10 1028 keine Meldung
Sa, 22.02. 7:00 1028 - 1,0
Sa, 22.02. 6:50 1028 keine Meldung
Sa, 22.02. 6:40 1028 keine Meldung
Sa, 22.02. 6:30 1028 - 0,7
Sa, 22.02. 6:00 1028 - 1,3
Sa, 22.02. 5:30 1028 - 0,6
Sa, 22.02. 5:00 1028 - 0,9
Sa, 22.02. 4:30 1028 - 0,5
Ortszeit Schneehöhe (cm)
Sa, 22.02. 7:00 0
Sa, 22.02. 1:00 0
Fr, 21.02. 19:00 0
Fr, 21.02. 13:00 0
Fr, 21.02. 7:00 0
Fr, 21.02. 1:00 0
Do, 20.02. 19:00 0
Do, 20.02. 13:00 0
Ortszeit Schneehöhe (cm)
Sa, 22.02. 7:30 0
Sa, 22.02. 7:20 0
Sa, 22.02. 7:10 0
Sa, 22.02. 7:00 0
Sa, 22.02. 6:50 0
Sa, 22.02. 6:40 0
Sa, 22.02. 6:30 0
Sa, 22.02. 6:00 0
Sa, 22.02. 5:30 0
Sa, 22.02. 5:00 0
Sa, 22.02. 4:30 0
Link zu dieser Seite / Seite empfehlen

Das Wetter in ...